Time;durP1;ratioP1;P1;durP2;ratioP2;P2;SDS_P1;SDS_P2;PMS_P1;PMS_P2;Temp;Humidity;BMP_temperature;BMP_pressure;BME280_temperature;BME280_humidity;BME280_pressure;Samples;Min_cycle;Max_cycle;Signal;HPM_P1;HPM_P2
2020/12/04 05:53:10;;;;;;;25.17;12.53;;;;;;;1.53;100.00;98853.20;1729254;78;21189;-59
2020/12/04 05:55:40;;;;;;;;;;;;;;;1.54;100.00;98846.55;1737269;81;21577;-58
2020/12/04 05:58:11;;;;;;;24.63;11.60;;;;;;;1.59;100.00;98851.30;1741155;81;20237;-61
2020/12/04 06:00:41;;;;;;;28.30;13.13;;;;;;;1.63;100.00;98852.64;1765420;81;21150;-60
2020/12/04 06:03:10;;;;;;;26.03;12.43;;;;;;;1.64;100.00;98859.95;1752529;81;21601;-48
2020/12/04 06:05:40;;;;;;;26.37;12.43;;;;;;;1.67;100.00;98860.48;1737801;81;21115;-47
2020/12/04 06:08:10;;;;;;;23.70;12.13;;;;;;;1.69;100.00;98853.34;1743347;81;21182;-52
2020/12/04 06:10:40;;;;;;;23.70;11.25;;;;;;;1.72;100.00;98847.01;1734039;83;21150;-55
2020/12/04 06:13:10;;;;;;;21.87;10.80;;;;;;;1.74;100.00;98854.19;1735261;83;21182;-54
2020/12/04 06:15:45;;;;;;;24.57;11.87;;;;;;;1.75;100.00;98855.33;1737633;81;21180;-63
2020/12/04 06:18:15;;;;;;;24.27;12.03;;;;;;;1.78;100.00;98852.93;1735151;81;21148;-45
2020/12/04 06:20:46;;;;;;;24.77;11.47;;;;;;;1.79;100.00;98846.76;1724598;82;21124;-57
2020/12/04 06:23:17;;;;;;;24.15;11.33;;;;;;;1.79;100.00;98852.77;1730675;83;21150;-54
2020/12/04 06:25:58;;;;;;;22.37;11.60;;;;;;;1.83;100.00;98849.36;1734885;83;21209;-68
2020/12/04 06:28:37;;;;;;;24.95;13.05;;;;;;;1.85;100.00;98851.34;1729378;81;21323;-55
2020/12/04 06:31:13;;;;;;;27.20;12.73;;;;;;;1.85;100.00;98847.45;1716300;81;21161;-54
2020/12/04 06:33:48;;;;;;;26.73;13.00;;;;;;;1.86;100.00;98841.28;1715614;81;21161;-49
2020/12/04 06:36:35;;;;;;;27.17;13.00;;;;;;;1.90;100.00;98841.31;1715058;83;21228;-56
2020/12/04 06:39:07;;;;;;;26.87;13.03;;;;;;;1.91;100.00;98829.94;1716163;83;21175;-53
2020/12/04 06:41:45;;;;;;;24.55;12.03;;;;;;;1.93;100.00;98829.78;1733182;83;21158;-49
2020/12/04 06:44:22;;;;;;;22.77;11.73;;;;;;;1.96;100.00;98821.69;1733366;83;21191;-61
2020/12/04 06:46:55;;;;;;;24.23;13.17;;;;;;;2.02;100.00;98830.98;1733342;83;21555;-56
2020/12/04 06:49:38;;;;;;;25.33;12.70;;;;;;;2.05;100.00;98832.45;1733218;83;21202;-58
2020/12/04 06:52:23;;;;;;;24.57;12.53;;;;;;;2.07;100.00;98830.53;1730021;82;21211;-55
2020/12/04 06:55:00;;;;;;;22.50;11.87;;;;;;;2.08;100.00;98829.06;1708545;83;21373;-50
2020/12/04 06:57:30;;;;;;;22.30;11.97;;;;;;;2.13;100.00;98841.61;1725979;83;21170;-52
2020/12/04 07:00:04;;;;;;;24.97;11.70;;;;;;;2.18;100.00;98845.03;1737213;82;21685;-56
2020/12/04 07:02:36;;;;;;;22.73;12.03;;;;;;;2.22;100.00;98850.26;1738266;82;21147;-58
2020/12/04 07:05:10;;;;;;;23.57;11.90;;;;;;;2.25;100.00;98845.58;1728790;82;21158;-46
2020/12/04 07:07:39;;;;;;;22.85;12.43;;;;;;;2.29;100.00;98839.07;1733048;81;21107;-49
2020/12/04 07:10:09;;;;;;;22.33;11.47;;;;;;;2.31;100.00;98842.84;1725943;83;21200;-51
2020/12/04 07:12:41;;;;;;;23.92;11.57;;;;;;;2.36;100.00;98835.39;1725541;83;21336;-52
2020/12/04 07:15:12;;;;;;;22.47;12.50;;;;;;;2.45;100.00;98829.72;1729933;82;21151;-53
2020/12/04 07:17:41;;;;;;;23.20;13.17;;;;;;;2.51;100.00;98830.39;1742549;81;21214;-48
2020/12/04 07:20:10;;;;;;;26.00;12.00;;;;;;;2.52;100.00;98825.52;1742156;82;21127;-51
2020/12/04 07:22:41;;;;;;;23.40;12.30;;;;;;;2.54;100.00;98837.91;1742124;82;21155;-47
2020/12/04 07:25:11;;;;;;;;;;;;;;;2.58;100.00;98838.73;1744947;82;21174;-48
2020/12/04 07:27:40;;;;;;;23.10;11.97;;;;;;;2.59;100.00;98837.77;1735209;82;20241;-50
2020/12/04 07:30:17;;;;;;;25.10;12.95;;;;;;;2.60;100.00;98834.18;1737450;82;21312;-51
2020/12/04 07:32:52;;;;;;;21.67;12.47;;;;;;;2.63;100.00;98827.83;1726347;82;21225;-48
2020/12/04 07:35:23;;;;;;;23.37;13.00;;;;;;;2.70;100.00;98817.14;1735381;82;21174;-50
2020/12/04 07:37:53;;;;;;;22.20;12.43;;;;;;;2.78;100.00;98807.23;1738298;81;21696;-53
2020/12/04 07:40:23;;;;;;;24.57;12.15;;;;;;;2.82;100.00;98809.85;1734733;82;21133;-62
2020/12/04 07:42:54;;;;;;;26.67;12.73;;;;;;;2.84;100.00;98812.61;1724322;83;21166;-45
2020/12/04 07:45:23;;;;;;;24.60;12.80;;;;;;;2.90;100.00;98809.37;1725310;83;21254;-56
2020/12/04 07:47:52;;;;;;;26.33;14.03;;;;;;;2.95;100.00;98818.01;1724221;83;21295;-47
2020/12/04 07:50:22;;;;;;;24.20;13.20;;;;;;;2.97;100.00;98808.73;1724352;82;21206;-56
2020/12/04 07:52:51;;;;;;;24.57;12.77;;;;;;;3.01;100.00;98810.86;1726033;82;21319;-63
2020/12/04 07:55:21;;;;;;;24.87;14.23;;;;;;;3.07;100.00;98816.72;1708200;82;21166;-59
2020/12/04 07:58:08;;;;;;;24.43;13.63;;;;;;;3.15;100.00;98822.42;1734811;81;21153;-54
2020/12/04 08:00:37;;;;;;;24.43;12.87;;;;;;;3.26;100.00;98830.41;1735965;81;21629;-53
2020/12/04 08:03:15;;;;;;;25.97;13.43;;;;;;;3.38;100.00;98827.81;1734435;83;21141;-48
2020/12/04 08:05:45;;;;;;;23.55;12.90;;;;;;;3.46;100.00;98826.53;1736020;83;21153;-46
2020/12/04 08:08:19;;;;;;;25.83;13.27;;;;;;;3.52;100.00;98816.75;1735796;83;21130;-48
2020/12/04 08:10:49;;;;;;;24.27;13.43;;;;;;;3.55;100.00;98819.52;1732591;81;21190;-48
2020/12/04 08:13:21;;;;;;;24.67;13.33;;;;;;;3.55;100.00;98818.20;1743525;82;21532;-47
2020/12/04 08:15:50;;;;;;;23.87;13.87;;;;;;;3.54;100.00;98821.30;1735963;82;21276;-48
2020/12/04 08:18:21;;;;;;;25.65;14.58;;;;;;;3.55;100.00;98833.84;1748417;82;21281;-49
2020/12/04 08:21:05;;;;;;;25.23;14.20;;;;;;;3.52;100.00;98829.78;1748098;81;21597;-47
2020/12/04 08:23:38;;;;;;;22.00;12.80;;;;;;;3.50;100.00;98831.75;1748073;82;21186;-57
2020/12/04 08:26:17;;;;;;;22.30;12.97;;;;;;;3.49;100.00;98822.77;1748141;82;21198;-46
2020/12/04 08:28:55;;;;;;;24.93;13.20;;;;;;;3.46;100.00;98827.83;1711587;82;21182;-50
2020/12/04 08:31:25;;;;;;;24.23;14.90;;;;;;;3.51;100.00;98832.56;1736166;83;21644;-52
2020/12/04 08:33:57;;;;;;;25.93;16.40;;;;;;;3.60;100.00;98832.38;1736347;81;21648;-56
2020/12/04 08:36:27;;;;;;;;;;;;;;;3.70;100.00;98836.13;1710734;81;21174;-49
2020/12/04 08:38:56;;;;;;;25.93;15.33;;;;;;;3.83;100.00;98836.92;1735103;81;20408;-47
2020/12/04 08:41:37;;;;;;;26.23;14.33;;;;;;;3.92;100.00;98845.08;1738354;81;21153;-50
2020/12/04 08:44:09;;;;;;;23.92;13.05;;;;;;;3.98;100.00;98831.38;1736289;81;21193;-49
2020/12/04 08:46:40;;;;;;;24.77;13.75;;;;;;;4.06;100.00;98837.05;1735778;83;21184;-52
2020/12/04 08:49:11;;;;;;;24.75;14.93;;;;;;;4.09;100.00;98834.94;1735883;83;21177;-48
2020/12/04 08:51:50;;;;;;;30.73;15.43;;;;;;;4.15;100.00;98842.09;1736047;83;21129;-51
2020/12/04 08:54:20;;;;;;;23.00;13.10;;;;;;;4.23;100.00;98846.47;1710376;82;21190;-54
2020/12/04 08:56:53;;;;;;;21.25;12.10;;;;;;;4.31;100.00;98836.03;1682541;82;21213;-49
2020/12/04 08:59:26;;;;;;;24.50;13.28;;;;;;;4.36;100.00;98827.67;1696915;82;21585;-51
2020/12/04 09:01:56;;;;;;;25.85;14.95;;;;;;;4.44;100.00;98823.73;1693426;82;21342;-50
2020/12/04 09:04:28;;;;;;;24.85;14.75;;;;;;;4.52;100.00;98831.53;1686428;84;21326;-51
2020/12/04 09:06:58;;;;;;;23.52;14.20;;;;;;;4.57;99.83;98819.28;1703080;84;21711;-52
2020/12/04 09:09:27;;;;;;;23.38;14.73;;;;;;;4.62;99.17;98823.50;1703690;82;21210;-55
2020/12/04 09:11:59;;;;;;;26.30;13.65;;;;;;;4.65;98.90;98823.98;1691831;82;21210;-48
2020/12/04 09:14:29;;;;;;;23.85;13.20;;;;;;;4.71;98.21;98836.36;1673884;82;21357;-59
2020/12/04 09:17:00;;;;;;;27.32;15.53;;;;;;;4.77;98.31;98827.03;1733200;83;21172;-58
2020/12/04 09:19:30;;;;;;;26.33;14.30;;;;;;;4.89;98.73;98827.45;1713234;82;21364;-50
2020/12/04 09:22:01;;;;;;;25.00;14.07;;;;;;;5.05;96.64;98823.45;1698610;82;21185;-47
2020/12/04 09:24:31;;;;;;;24.45;14.68;;;;;;;5.12;96.39;98815.23;1680768;85;21174;-46
2020/12/04 09:27:01;;;;;;;24.47;14.30;;;;;;;5.20;95.05;98833.95;1681305;82;21241;-58
2020/12/04 09:29:31;;;;;;;23.85;13.48;;;;;;;5.24;94.67;98819.55;1732452;82;21337;-59
2020/12/04 09:32:08;;;;;;;23.30;14.33;;;;;;;5.31;93.58;98827.82;1732763;82;21604;-51
2020/12/04 09:34:39;;;;;;;32.15;15.43;;;;;;;5.36;92.47;98831.23;1714571;82;21188;-53
2020/12/04 09:37:29;;;;;;;24.90;14.53;;;;;;;5.36;91.72;98828.61;1679807;85;21754;-50
2020/12/04 09:40:10;;;;;;;27.60;14.65;;;;;;;5.31;91.68;98829.13;1679877;85;21198;-52
2020/12/04 09:42:42;;;;;;;25.25;14.60;;;;;;;5.31;91.35;98828.32;1680098;85;21600;-53
2020/12/04 09:45:13;;;;;;;26.48;14.45;;;;;;;5.26;91.40;98814.95;1680058;85;21210;-57
2020/12/04 09:47:42;;;;;;;26.25;15.03;;;;;;;5.23;91.66;98823.97;1706569;84;21553;-50
2020/12/04 09:50:15;;;;;;;25.45;14.63;;;;;;;5.26;92.06;98828.84;1708284;84;21162;-55
2020/12/04 09:52:50;;;;;;;23.92;14.47;;;;;;;5.34;91.71;98818.83;1708319;84;21206;-54
2020/12/04 09:55:20;;;;;;;23.60;14.18;;;;;;;5.41;91.87;98809.80;1741088;82;21384;-50
2020/12/04 09:57:50;;;;;;;23.85;14.53;;;;;;;5.48;90.50;98800.25;1743327;82;21163;-55
2020/12/04 10:00:21;;;;;;;25.95;15.18;;;;;;;5.50;90.29;98810.03;1744559;81;21281;-51
2020/12/04 10:02:51;;;;;;;27.27;14.63;;;;;;;5.54;90.22;98810.81;1744806;82;21155;-47
2020/12/04 10:05:20;;;;;;;32.35;15.58;;;;;;;5.58;90.26;98806.86;1744870;81;21183;-53
2020/12/04 10:07:49;;;;;;;25.90;14.05;;;;;;;5.61;89.78;98812.22;1743021;81;21313;-58
2020/12/04 10:10:18;;;;;;;24.80;15.50;;;;;;;5.64;89.08;98802.73;1743081;82;21196;-49
2020/12/04 10:12:48;;;;;;;29.45;16.57;;;;;;;5.65;89.62;98812.20;1742245;82;21200;-48
2020/12/04 10:15:17;;;;;;;28.80;15.25;;;;;;;5.68;89.00;98801.40;1741970;81;21669;-47
2020/12/04 10:17:46;;;;;;;26.12;16.07;;;;;;;5.68;88.35;98792.24;1752388;81;21206;-47
2020/12/04 10:20:17;;;;;;;24.85;14.68;;;;;;;5.69;87.94;98782.59;1746724;81;21620;-47
2020/12/04 10:22:47;;;;;;;24.52;14.60;;;;;;;5.72;88.06;98791.38;1740519;81;21283;-49
2020/12/04 10:25:17;;;;;;;27.10;14.33;;;;;;;5.80;86.25;98784.27;1741589;82;21343;-48
2020/12/04 10:27:47;;;;;;;22.42;13.53;;;;;;;5.80;86.25;98784.27;1741542;81;21181;-47
2020/12/04 10:30:17;;;;;;;25.57;14.80;;;;;;;5.85;86.51;98785.86;1741156;81;21198;-48
2020/12/04 10:32:47;;;;;;;28.35;16.70;;;;;;;5.90;86.70;98787.91;1727429;81;21206;-47
2020/12/04 10:35:17;;;;;;;27.15;15.75;;;;;;;5.92;86.82;98791.72;1743765;81;21236;-46
2020/12/04 10:37:46;;;;;;;29.45;15.60;;;;;;;5.85;86.72;98789.78;1745244;82;21194;-48
2020/12/04 10:40:16;;;;;;;28.17;16.40;;;;;;;5.86;87.00;98790.59;1745308;81;21170;-47
2020/12/04 10:42:45;;;;;;;31.62;16.70;;;;;;;5.90;87.14;98783.99;1744213;81;21567;-48
2020/12/04 10:45:15;;;;;;;22.80;14.13;;;;;;;5.89;87.00;98797.27;1741891;82;21189;-48
2020/12/04 10:47:44;;;;;;;26.20;14.53;;;;;;;5.85;85.92;98774.09;1742301;82;21176;-48
2020/12/04 10:50:14;;;;;;;26.55;13.93;;;;;;;5.80;86.03;98780.84;1741310;82;21189;-50
2020/12/04 10:52:43;;;;;;;25.97;14.75;;;;;;;5.86;85.31;98787.98;1745235;81;21178;-47
2020/12/04 10:55:13;;;;;;;34.80;19.20;;;;;;;5.92;85.17;98791.22;1740252;82;21582;-51
2020/12/04 10:57:42;;;;;;;38.80;21.95;;;;;;;5.94;85.87;98793.15;1739368;82;21579;-48
2020/12/04 11:00:12;;;;;;;30.43;18.37;;;;;;;5.91;86.18;98794.83;1745976;82;21178;-46
2020/12/04 11:02:41;;;;;;;28.65;17.25;;;;;;;5.84;86.54;98795.98;1744617;81;21119;-58
2020/12/04 11:05:39;;;;;;;24.47;14.63;;;;;;;5.81;86.78;98786.39;1737833;82;21164;-49
2020/12/04 11:08:02;;;;;;;23.85;13.22;;;;;;;5.80;86.89;98788.20;1740426;82;21129;-52
2020/12/04 11:10:31;;;;;;;31.90;17.00;;;;;;;5.84;86.86;98792.06;1738185;82;21180;-50
2020/12/04 11:13:01;;;;;;;27.73;15.98;;;;;;;5.93;86.71;98791.53;1735779;83;21575;-59
2020/12/04 11:15:31;;;;;;;28.75;17.37;;;;;;;5.92;86.47;98796.95;1739377;81;21324;-58
2020/12/04 11:18:00;;;;;;;30.57;19.07;;;;;;;5.84;86.69;98789.94;1730126;82;21189;-54
2020/12/04 11:20:29;;;;;;;31.97;18.32;;;;;;;5.77;87.08;98793.77;1741048;81;21165;-47
2020/12/04 11:22:59;;;;;;;32.60;18.45;;;;;;;5.70;87.30;98794.17;1738716;82;21154;-50
2020/12/04 11:25:29;;;;;;;30.08;17.75;;;;;;;5.66;87.57;98794.70;1738596;82;21647;-59
2020/12/04 11:27:58;;;;;;;31.70;17.40;;;;;;;5.61;87.83;98801.77;1716782;82;21221;-55
2020/12/04 11:30:27;;;;;;;28.20;16.50;;;;;;;5.55;87.95;98806.39;1737497;81;21184;-58
2020/12/04 11:32:57;;;;;;;30.05;17.62;;;;;;;5.53;88.41;98800.54;1736495;82;21324;-52
2020/12/04 11:35:26;;;;;;;28.38;17.10;;;;;;;5.50;88.49;98793.84;1743103;82;21193;-51
2020/12/04 11:37:59;;;;;;;30.80;17.60;;;;;;;5.50;88.81;98793.03;1740822;82;21149;-44
2020/12/04 11:40:29;;;;;;;28.73;16.75;;;;;;;5.50;88.96;98790.42;1740083;82;21172;-64
2020/12/04 11:42:58;;;;;;;27.85;15.40;;;;;;;5.50;88.94;98793.03;1740231;82;21612;-50
2020/12/04 11:45:28;;;;;;;27.40;15.40;;;;;;;5.50;88.98;98792.53;1740250;82;21889;-59
2020/12/04 11:47:58;;;;;;;28.10;16.00;;;;;;;5.48;88.88;98797.14;1740544;82;21213;-53
2020/12/04 11:50:28;;;;;;;29.10;16.73;;;;;;;5.46;89.26;98789.17;1740214;81;21145;-52
2020/12/04 11:52:57;;;;;;;24.72;15.23;;;;;;;5.45;89.42;98780.52;1740094;82;21122;-53
2020/12/04 11:55:26;;;;;;;29.72;15.72;;;;;;;5.44;89.36;98778.86;1737531;81;21178;-52
2020/12/04 11:57:56;;;;;;;27.52;16.70;;;;;;;5.36;89.90;98782.87;1735590;81;21214;-59
2020/12/04 12:00:25;;;;;;;27.90;16.25;;;;;;;5.30;90.64;98782.27;1737761;80;21212;-57
2020/12/04 12:02:54;;;;;;;28.38;15.83;;;;;;;5.31;91.13;98782.08;1742465;82;21161;-57
2020/12/04 12:05:25;;;;;;;25.32;15.32;;;;;;;5.35;91.14;98782.55;1742842;82;21172;-55
2020/12/04 12:07:55;;;;;;;28.15;17.23;;;;;;;5.32;91.24;98784.20;1720955;82;21724;-57
2020/12/04 12:10:27;;;;;;;30.05;17.77;;;;;;;5.24;91.80;98793.42;1738983;82;21198;-59
2020/12/04 12:13:02;;;;;;;28.90;16.85;;;;;;;5.12;92.63;98781.26;1710117;82;21634;-56
2020/12/04 12:15:36;;;;;;;29.75;16.60;;;;;;;5.02;93.52;98783.28;1702348;84;21209;-57
2020/12/04 12:18:05;;;;;;;26.10;15.48;;;;;;;4.94;94.44;98793.30;1741695;82;21173;-55
2020/12/04 12:20:35;;;;;;;28.75;16.62;;;;;;;4.96;95.17;98786.09;1742208;82;21601;-55
2020/12/04 12:23:04;;;;;;;29.42;18.10;;;;;;;5.02;95.34;98795.84;1742572;82;21153;-55
2020/12/04 12:25:34;;;;;;;30.48;19.00;;;;;;;5.10;95.27;98794.97;1728407;81;21163;-44
2020/12/04 12:28:05;;;;;;;33.13;18.12;;;;;;;5.12;95.24;98786.48;1736427;82;21201;-50
2020/12/04 12:30:36;;;;;;;26.93;15.83;;;;;;;5.11;95.61;98783.56;1742350;82;21220;-46
2020/12/04 12:33:05;;;;;;;27.07;16.50;;;;;;;5.12;96.00;98785.17;1743101;82;21212;-47
2020/12/04 12:35:34;;;;;;;27.82;16.00;;;;;;;5.14;96.45;98791.03;1740179;82;21182;-50
2020/12/04 12:38:04;;;;;;;35.13;19.35;;;;;;;5.21;96.75;98798.98;1736373;82;21167;-55
2020/12/04 12:40:34;;;;;;;37.37;21.40;;;;;;;5.21;96.89;98805.52;1732672;81;21288;-50
2020/12/04 12:43:05;;;;;;;30.45;17.45;;;;;;;5.23;97.39;98799.64;1696938;82;21208;-44
2020/12/04 12:45:36;;;;;;;31.37;16.42;;;;;;;5.22;98.01;98798.02;1745118;82;21629;-48
2020/12/04 12:48:06;;;;;;;26.60;14.23;;;;;;;5.23;98.59;98802.25;1744330;81;21137;-44
2020/12/04 12:50:36;;;;;;;26.37;15.70;;;;;;;5.25;99.19;98809.41;1736188;82;21190;-46
2020/12/04 12:53:05;;;;;;;28.52;16.00;;;;;;;5.25;99.67;98808.11;1742015;81;21205;-56
2020/12/04 12:55:36;;;;;;;28.05;17.15;;;;;;;5.24;100.00;98797.34;1714810;82;21163;-47
2020/12/04 12:58:05;;;;;;;34.03;17.77;;;;;;;5.24;100.00;98796.84;1721336;82;21159;-47
2020/12/04 13:00:35;;;;;;;32.73;17.85;;;;;;;5.22;100.00;98799.33;1738551;82;21204;-55
2020/12/04 13:03:05;;;;;;;31.05;16.93;;;;;;;5.17;100.00;98800.34;1738448;82;21176;-46
2020/12/04 13:05:34;;;;;;;27.05;15.95;;;;;;;5.14;100.00;98807.20;1738747;82;22298;-58
2020/12/04 13:08:07;;;;;;;;;;;;;;;5.15;100.00;98805.72;1735878;82;21305;-57
2020/12/04 13:10:40;;;;;;;28.52;16.40;;;;;;;5.14;100.00;98796.26;1733209;82;20210;-57
2020/12/04 13:13:11;;;;;;;34.80;18.48;;;;;;;5.14;100.00;98804.59;1738247;82;21269;-52
2020/12/04 13:15:42;;;;;;;29.48;15.80;;;;;;;5.17;100.00;98810.30;1703016;83;21159;-55
2020/12/04 13:18:13;;;;;;;35.13;17.57;;;;;;;5.15;100.00;98800.48;1732907;82;21199;-55
2020/12/04 13:20:50;;;;;;;29.85;16.57;;;;;;;5.12;100.00;98807.88;1729572;82;21131;-52
2020/12/04 13:23:21;;;;;;;30.05;17.40;;;;;;;5.11;100.00;98806.27;1702430;82;21594;-52
2020/12/04 13:25:50;;;;;;;32.48;18.98;;;;;;;5.11;100.00;98816.22;1722000;81;21191;-47
2020/12/04 13:28:32;;;;;;;31.82;17.85;;;;;;;5.15;100.00;98825.81;1730714;81;21135;-47
2020/12/04 13:31:02;;;;;;;30.20;17.73;;;;;;;5.17;100.00;98825.16;1730260;83;21298;-60
2020/12/04 13:33:32;;;;;;;30.52;17.42;;;;;;;5.18;100.00;98829.40;1733206;83;21148;-54
2020/12/04 13:36:02;;;;;;;29.23;16.95;;;;;;;5.20;100.00;98828.23;1728302;83;21123;-57
